createdAt,value
2023-09-03T00:00:43.717Z,96795.78
2023-09-03T00:03:11.566Z,96796.03
2023-09-03T00:05:39.266Z,96799.81
2023-09-03T00:08:07.316Z,96786.41
2023-09-03T00:10:36.979Z,96782.34
2023-09-03T00:13:06.121Z,96784.22
2023-09-03T00:15:34.161Z,96790.41
2023-09-03T00:18:01.781Z,96786.09
2023-09-03T00:20:29.447Z,96781.81
2023-09-03T00:22:57.048Z,96786.59
2023-09-03T00:25:24.654Z,96797.56
2023-09-03T00:27:52.242Z,96801.34
2023-09-03T00:30:21.279Z,96797.03
2023-09-03T00:32:48.958Z,96794.88
2023-09-03T00:35:16.908Z,96796.75
2023-09-03T00:37:44.510Z,96793.25
2023-09-03T00:40:13.270Z,96797.00
2023-09-03T00:42:40.846Z,96798.84
2023-09-03T00:45:09.502Z,96799.41
2023-09-03T00:47:38.545Z,96806.59
2023-09-03T00:50:07.503Z,96806.59
2023-09-03T00:52:35.108Z,96815.75
2023-09-03T00:55:02.742Z,96813.31
2023-09-03T00:57:30.791Z,96817.03
2023-09-03T00:59:59.468Z,96813.81
2023-09-03T01:02:27.968Z,96813.00
2023-09-03T01:04:56.879Z,96806.84
2023-09-03T01:07:24.529Z,96811.38
2023-09-03T01:09:52.215Z,96822.38
2023-09-03T01:12:22.834Z,96830.66
2023-09-03T01:15:00.142Z,96831.72
2023-09-03T01:17:31.736Z,96829.03
2023-09-03T01:20:07.952Z,96823.13
2023-09-03T01:22:56.188Z,96818.81
2023-09-03T01:25:42.825Z,96819.88
2023-09-03T01:28:22.651Z,96817.44
2023-09-03T01:30:51.468Z,96826.31
2023-09-03T01:33:19.901Z,96833.78
2023-09-03T01:35:48.984Z,96839.16
2023-09-03T01:38:17.244Z,96844.75
2023-09-03T01:40:44.869Z,96849.31
2023-09-03T01:43:12.733Z,96843.16
2023-09-03T01:45:48.075Z,96848.78
2023-09-03T01:48:22.489Z,96844.47
2023-09-03T01:50:57.698Z,96850.06
2023-09-03T01:53:31.152Z,96848.47
2023-09-03T01:56:01.833Z,96853.84
2023-09-03T01:58:32.154Z,96861.06
2023-09-03T02:01:02.766Z,96854.88
2023-09-03T02:03:32.151Z,96853.25
2023-09-03T02:05:59.754Z,96857.00
2023-09-03T02:08:27.315Z,96859.09
2023-09-03T02:10:55.093Z,96854.56
2023-09-03T02:13:22.693Z,96847.03
2023-09-03T02:15:50.260Z,96847.03
2023-09-03T02:18:19.397Z,96847.81
2023-09-03T02:20:47.279Z,96846.19
2023-09-03T02:23:14.934Z,96841.09
2023-09-03T02:25:42.926Z,96833.31
2023-09-03T02:28:10.557Z,96841.34
2023-09-03T02:30:38.136Z,96845.09
2023-09-03T02:33:06.026Z,96838.09
2023-09-03T02:35:34.975Z,96828.44
2023-09-03T02:38:02.544Z,96834.88
2023-09-03T02:40:30.142Z,96832.44
2023-09-03T02:42:58.002Z,96839.66
2023-09-03T02:45:25.599Z,96844.22
2023-09-03T02:47:53.240Z,96855.19
2023-09-03T02:50:20.847Z,96858.94
2023-09-03T02:52:50.472Z,96860.81
2023-09-03T02:55:18.060Z,96865.34
2023-09-03T02:57:45.641Z,96861.88
2023-09-03T03:00:14.423Z,96864.56
2023-09-03T03:02:42.675Z,96859.44
2023-09-03T03:05:10.961Z,96864.81
2023-09-03T03:07:39.224Z,96868.78
2023-09-03T03:10:09.523Z,96868.00
2023-09-03T03:12:37.338Z,96866.34
2023-09-03T03:15:06.112Z,96859.38
2023-09-03T03:17:33.717Z,96860.44
2023-09-03T03:20:01.329Z,96858.81
2023-09-03T03:22:28.885Z,96864.44
2023-09-03T03:24:56.664Z,96863.63
2023-09-03T03:27:25.634Z,96864.69
2023-09-03T03:29:54.056Z,96863.03
2023-09-03T03:32:21.687Z,96870.53
2023-09-03T03:34:49.262Z,96868.91
2023-09-03T03:37:16.818Z,96864.63
2023-09-03T03:39:44.375Z,96865.44
2023-09-03T03:42:11.931Z,96868.34
2023-09-03T03:44:40.858Z,96865.13
2023-09-03T03:47:08.438Z,96865.91
2023-09-03T03:49:36.119Z,96883.88
2023-09-03T03:52:03.768Z,96881.44
2023-09-03T03:54:31.705Z,96878.75
2023-09-03T03:56:59.270Z,96885.16
2023-09-03T03:59:26.843Z,96887.03
2023-09-03T04:01:55.804Z,96887.28
2023-09-03T04:04:23.392Z,96891.84
2023-09-03T04:06:51.126Z,96895.56
2023-09-03T04:09:18.729Z,96889.66
2023-09-03T04:11:48.629Z,96890.47
2023-09-03T04:14:16.242Z,96893.16
2023-09-03T04:16:43.858Z,96895.03
2023-09-03T04:19:13.923Z,96903.31
2023-09-03T04:21:41.480Z,96914.00
2023-09-03T04:24:10.475Z,96910.75
2023-09-03T04:26:38.617Z,96914.25
2023-09-03T04:29:08.127Z,96915.31
2023-09-03T04:31:37.089Z,96913.94
2023-09-03T04:34:06.730Z,96908.56
2023-09-03T04:36:36.045Z,96913.13
2023-09-03T04:39:04.786Z,96909.66
2023-09-03T04:41:32.535Z,96918.47
2023-09-03T04:44:11.501Z,96920.59
2023-09-03T04:46:39.305Z,96925.13
2023-09-03T04:49:06.996Z,96930.47
2023-09-03T04:51:36.171Z,96935.03
2023-09-03T04:54:03.824Z,96931.56
2023-09-03T04:56:31.429Z,96946.78
2023-09-03T04:58:59.005Z,96946.78
2023-09-03T05:01:26.635Z,96953.78
2023-09-03T05:03:54.288Z,96947.63
2023-09-03T05:06:22.054Z,96958.91
2023-09-03T05:08:50.976Z,96963.19
2023-09-03T05:11:19.832Z,96966.69
2023-09-03T05:13:47.534Z,96964.00
2023-09-03T05:16:15.144Z,96958.41
2023-09-03T05:18:42.711Z,96963.50
2023-09-03T05:21:11.171Z,96955.22
2023-09-03T05:23:39.565Z,96961.97
2023-09-03T05:26:08.537Z,96964.66
2023-09-03T05:28:36.203Z,96966.00
2023-09-03T05:31:03.902Z,96973.81
2023-09-03T05:33:31.519Z,96985.34
2023-09-03T05:35:59.101Z,96982.41
2023-09-03T05:38:26.685Z,96982.41
2023-09-03T05:40:54.295Z,96977.63
2023-09-03T05:43:24.321Z,96984.56
2023-09-03T05:45:52.984Z,96978.97
2023-09-03T05:48:20.909Z,96985.72
2023-09-03T05:50:48.706Z,96972.88
2023-09-03T05:53:16.284Z,96978.00
2023-09-03T05:55:43.876Z,96986.84
2023-09-03T05:58:11.533Z,96998.13
2023-09-03T06:00:44.465Z,96997.88
2023-09-03T06:03:12.261Z,97000.06
2023-09-03T06:05:40.568Z,97001.44
2023-09-03T06:08:10.104Z,97007.38
2023-09-03T06:10:39.086Z,97008.72
2023-09-03T06:13:06.721Z,97010.34
2023-09-03T06:15:34.376Z,97010.34
2023-09-03T06:18:03.582Z,97015.22
2023-09-03T06:20:33.825Z,97014.16
2023-09-03T06:23:01.447Z,97015.28
2023-09-03T06:25:29.060Z,97012.09
2023-09-03T06:27:56.614Z,97021.28
2023-09-03T06:30:24.239Z,97019.78
2023-09-03T06:32:51.859Z,97026.47
2023-09-03T06:35:20.893Z,97030.53
2023-09-03T06:37:48.799Z,97029.22
2023-09-03T06:40:16.442Z,97032.47
2023-09-03T06:42:44.208Z,97045.16
2023-09-03T06:45:12.188Z,97046.50
2023-09-03T06:47:40.713Z,97049.75
2023-09-03T06:50:09.466Z,97051.38
2023-09-03T06:52:38.409Z,97060.78
2023-09-03T06:55:06.540Z,97066.16
2023-09-03T06:57:34.876Z,97068.34
2023-09-03T07:00:06.933Z,97073.69
2023-09-03T07:02:35.000Z,97080.41
2023-09-03T07:05:02.782Z,97080.41
2023-09-03T07:07:30.949Z,97074.31
2023-09-03T07:09:59.978Z,97086.72
2023-09-03T07:12:27.537Z,97086.56
2023-09-03T07:14:55.132Z,97093.56
2023-09-03T07:17:22.722Z,97102.50
2023-09-03T07:19:50.510Z,97108.75
2023-09-03T07:22:18.110Z,97113.88
2023-09-03T07:24:45.696Z,97117.38
2023-09-03T07:27:14.891Z,97106.94
2023-09-03T07:29:42.492Z,97118.28
2023-09-03T07:32:10.301Z,97103.91
2023-09-03T07:34:37.887Z,97101.25
2023-09-03T07:37:08.412Z,97094.09
2023-09-03T07:39:37.085Z,97090.38
2023-09-03T07:42:04.942Z,97086.66
2023-09-03T07:44:33.867Z,97084.84
2023-09-03T07:47:01.478Z,97081.16
2023-09-03T07:49:30.022Z,97075.53
2023-09-03T07:51:57.667Z,97073.13
2023-09-03T07:54:25.960Z,97082.56
2023-09-03T07:56:55.313Z,97082.31
2023-09-03T07:59:22.902Z,97084.16
2023-09-03T08:01:53.068Z,97090.13
2023-09-03T08:04:23.212Z,97095.22
2023-09-03T08:06:50.789Z,97101.16
2023-09-03T08:09:20.646Z,97100.38
2023-09-03T08:11:48.558Z,97099.88
2023-09-03T08:14:16.195Z,97107.19
2023-09-03T08:16:43.895Z,97110.94
2023-09-03T08:19:13.514Z,97122.03
2023-09-03T08:21:42.774Z,97115.66
2023-09-03T08:24:11.675Z,97119.19
2023-09-03T08:26:39.268Z,97120.03
2023-09-03T08:29:06.952Z,97119.78
2023-09-03T08:31:34.685Z,97115.75
2023-09-03T08:34:02.328Z,97124.94
2023-09-03T08:36:31.238Z,97121.72
2023-09-03T08:38:58.819Z,97122.84
2023-09-03T08:41:26.773Z,97122.31
2023-09-03T08:43:57.214Z,97129.63
2023-09-03T08:46:27.321Z,97128.81
2023-09-03T08:48:55.827Z,97129.94
2023-09-03T08:51:23.602Z,97129.41
2023-09-03T08:53:54.193Z,97131.59
2023-09-03T08:56:22.137Z,97130.00
2023-09-03T08:58:49.820Z,97128.66
2023-09-03T09:01:18.844Z,97127.88
2023-09-03T09:03:48.812Z,97113.91
2023-09-03T09:06:18.568Z,97116.63
2023-09-03T09:08:47.197Z,97108.03
2023-09-03T09:11:19.430Z,97112.66
2023-09-03T09:13:57.656Z,97110.28
2023-09-03T09:16:25.392Z,97109.47
2023-09-03T09:18:53.257Z,97109.78
2023-09-03T09:21:21.634Z,97106.56
2023-09-03T09:23:49.447Z,97119.75
2023-09-03T09:26:19.533Z,97114.66
2023-09-03T09:29:00.709Z,97120.56
2023-09-03T09:31:30.252Z,97119.78
2023-09-03T09:33:59.151Z,97121.16
2023-09-03T09:36:26.875Z,97129.75
2023-09-03T09:38:54.730Z,97128.69
2023-09-03T09:41:25.439Z,97126.28
2023-09-03T09:43:53.614Z,97128.44
2023-09-03T09:46:28.886Z,97128.97
2023-09-03T09:48:57.880Z,97124.16
2023-09-03T09:51:25.848Z,97122.81
2023-09-03T09:53:57.666Z,97123.91
2023-09-03T09:56:30.741Z,97123.91
2023-09-03T09:58:59.540Z,97124.19
2023-09-03T10:01:28.495Z,97113.72
2023-09-03T10:03:56.816Z,97125.81
2023-09-03T10:06:25.872Z,97121.53
2023-09-03T10:08:54.212Z,97120.22
2023-09-03T10:11:22.080Z,97110.78
2023-09-03T10:13:51.390Z,97111.34
2023-09-03T10:16:21.485Z,97112.94
2023-09-03T10:18:50.425Z,97108.09
2023-09-03T10:21:23.447Z,97107.81
2023-09-03T10:23:57.250Z,97109.72
2023-09-03T10:26:29.076Z,97109.19
2023-09-03T10:29:05.165Z,97107.84
2023-09-03T10:31:35.514Z,97107.31
2023-09-03T10:34:03.339Z,97093.59
2023-09-03T10:36:31.161Z,97096.81
2023-09-03T10:39:00.305Z,97095.75
2023-09-03T10:41:28.113Z,97101.94
2023-09-03T10:43:56.520Z,97107.31
2023-09-03T10:46:26.745Z,97104.34
2023-09-03T10:48:56.040Z,97098.16
2023-09-03T10:51:34.553Z,97091.16
2023-09-03T10:54:21.910Z,97086.84
2023-09-03T10:57:18.026Z,97090.63
2023-09-03T11:00:08.064Z,97098.72
2023-09-03T11:02:37.904Z,97103.25
2023-09-03T11:05:13.088Z,97098.72
2023-09-03T11:07:41.034Z,97099.25
2023-09-03T11:10:43.136Z,97092.50
2023-09-03T11:13:23.008Z,97086.31
2023-09-03T11:15:58.881Z,97092.25
2023-09-03T11:18:28.468Z,97089.81
2023-09-03T11:20:58.007Z,97095.19
2023-09-03T11:23:27.425Z,97089.53
2023-09-03T11:25:55.365Z,97094.66
2023-09-03T11:28:22.957Z,97098.72
2023-09-03T11:31:00.102Z,97091.97
2023-09-03T11:33:29.433Z,97100.31
2023-09-03T11:35:57.224Z,97095.19
2023-09-03T11:38:28.574Z,97103.03
2023-09-03T11:40:57.438Z,97100.84
2023-09-03T11:43:25.892Z,97093.59
2023-09-03T11:45:53.661Z,97099.53
2023-09-03T11:48:29.520Z,97094.66
2023-09-03T11:50:57.092Z,97098.16
2023-09-03T11:53:25.599Z,97094.66
2023-09-03T11:55:56.383Z,97094.38
2023-09-03T11:58:28.757Z,97096.28
2023-09-03T12:00:57.268Z,97089.25
2023-09-03T12:03:26.204Z,97096.00
2023-09-03T12:05:55.598Z,97095.75
2023-09-03T12:08:23.386Z,97098.97
2023-09-03T12:10:52.433Z,97093.03
2023-09-03T12:13:33.257Z,97089.03
2023-09-03T12:16:07.077Z,97096.56
2023-09-03T12:18:35.216Z,97089.00
2023-09-03T12:21:04.996Z,97090.91
2023-09-03T12:23:32.872Z,97085.53
2023-09-03T12:26:00.913Z,97086.59
2023-09-03T12:28:36.868Z,97090.91
2023-09-03T12:31:06.115Z,97086.31
2023-09-03T12:33:48.261Z,97088.75
2023-09-03T12:36:19.187Z,97083.06
2023-09-03T12:38:55.266Z,97086.81
2023-09-03T12:41:24.260Z,97081.16
2023-09-03T12:43:51.973Z,97074.44
2023-09-03T12:46:20.230Z,97080.34
2023-09-03T12:48:48.259Z,97086.56
2023-09-03T12:51:18.209Z,97081.44
2023-09-03T12:53:48.434Z,97079.81
2023-09-03T12:56:16.446Z,97083.31
2023-09-03T12:58:44.251Z,97076.31
2023-09-03T13:01:12.386Z,97083.31
2023-09-03T13:03:40.102Z,97077.13
2023-09-03T13:06:08.191Z,97077.13
2023-09-03T13:08:38.121Z,97078.75
2023-09-03T13:11:05.840Z,97082.25
2023-09-03T13:13:33.560Z,97077.91
2023-09-03T13:16:02.159Z,97076.31
2023-09-03T13:18:29.875Z,97064.44
2023-09-03T13:20:57.474Z,97069.03
2023-09-03T13:23:25.520Z,97072.53
2023-09-03T13:25:54.564Z,97069.03
2023-09-03T13:28:22.137Z,97067.97
2023-09-03T13:30:57.630Z,97066.84
2023-09-03T13:33:35.345Z,97072.81
2023-09-03T13:36:04.886Z,97067.94
2023-09-03T13:38:33.131Z,97058.50
2023-09-03T13:41:04.998Z,97052.28
2023-09-03T13:43:32.742Z,97063.63
2023-09-03T13:46:02.350Z,97056.06
2023-09-03T13:48:30.337Z,97053.88
2023-09-03T13:50:57.933Z,97057.66
2023-09-03T13:53:26.344Z,97054.69
2023-09-03T13:55:54.245Z,97053.59
2023-09-03T13:58:23.550Z,97046.03
2023-09-03T14:00:51.320Z,97042.53
2023-09-03T14:03:19.052Z,97037.69
2023-09-03T14:05:46.672Z,97036.06
2023-09-03T14:08:14.245Z,97032.84
2023-09-03T14:10:41.887Z,97029.03
2023-09-03T14:13:09.600Z,97036.06
2023-09-03T14:15:38.516Z,97025.25
2023-09-03T14:18:06.501Z,97029.59
2023-09-03T14:20:37.971Z,97030.38
2023-09-03T14:23:06.116Z,97029.31
2023-09-03T14:25:35.833Z,97031.19
2023-09-03T14:28:03.404Z,97033.31
2023-09-03T14:30:31.003Z,97029.53
2023-09-03T14:33:02.572Z,97034.13
2023-09-03T14:35:30.317Z,97031.44
2023-09-03T14:37:58.010Z,97025.47
2023-09-03T14:40:25.670Z,97023.84
2023-09-03T14:42:53.267Z,97023.84
2023-09-03T14:45:23.306Z,97025.47
2023-09-03T14:47:51.333Z,97029.50
2023-09-03T14:50:20.396Z,97022.22
2023-09-03T14:52:47.991Z,97022.50
2023-09-03T14:55:15.687Z,97023.31
2023-09-03T14:57:43.270Z,97027.63
2023-09-03T15:00:11.673Z,97019.53
2023-09-03T15:02:39.393Z,97011.72
2023-09-03T15:05:08.023Z,97016.81
2023-09-03T15:07:36.986Z,97018.69
2023-09-03T15:10:04.924Z,97014.69
2023-09-03T15:12:32.489Z,97005.25
2023-09-03T15:15:00.061Z,97008.50
2023-09-03T15:17:27.748Z,97011.97
2023-09-03T15:19:55.307Z,97013.06
2023-09-03T15:22:22.897Z,97004.44
2023-09-03T15:24:51.830Z,97013.88
2023-09-03T15:27:19.410Z,97013.59
2023-09-03T15:29:47.014Z,97010.66
2023-09-03T15:32:14.610Z,97012.81
2023-09-03T15:34:42.184Z,97004.72
2023-09-03T15:37:09.847Z,97016.31
2023-09-03T15:39:37.668Z,97007.69
2023-09-03T15:42:06.850Z,97011.19
2023-09-03T15:44:34.444Z,97008.50
2023-09-03T15:47:02.060Z,97011.19
2023-09-03T15:49:29.670Z,97009.03
2023-09-03T15:51:57.216Z,97013.06
2023-09-03T15:54:26.176Z,97002.53
2023-09-03T15:56:54.005Z,97007.69
2023-09-03T15:59:25.835Z,96996.38
2023-09-03T16:01:54.409Z,97000.41
2023-09-03T16:04:22.105Z,97003.38
2023-09-03T16:06:49.721Z,96999.06
2023-09-03T16:09:17.660Z,97006.91
2023-09-03T16:11:45.250Z,97005.28
2023-09-03T16:14:12.862Z,97007.44
2023-09-03T16:16:41.869Z,97000.44
2023-09-03T16:19:10.253Z,97005.53
2023-09-03T16:21:41.119Z,97001.22
2023-09-03T16:24:09.454Z,97009.31
2023-09-03T16:26:37.038Z,97018.25
2023-09-03T16:29:04.679Z,97007.44
2023-09-03T16:31:32.361Z,97008.53
2023-09-03T16:34:03.941Z,97005.56
2023-09-03T16:36:31.607Z,97008.28
2023-09-03T16:38:59.883Z,97003.16
2023-09-03T16:41:27.495Z,97004.75
2023-09-03T16:43:55.108Z,97005.03
2023-09-03T16:46:22.722Z,97005.28
2023-09-03T16:48:50.431Z,97004.78
2023-09-03T16:51:19.432Z,97002.88
2023-09-03T16:53:47.034Z,97005.06
2023-09-03T16:56:14.749Z,97007.22
2023-09-03T16:58:42.578Z,97005.31
2023-09-03T17:01:10.235Z,97006.72
2023-09-03T17:03:37.861Z,97004.28
2023-09-03T17:06:05.452Z,97001.84
2023-09-03T17:08:35.039Z,97000.22
2023-09-03T17:11:03.000Z,97003.22
2023-09-03T17:13:31.391Z,97003.47
2023-09-03T17:15:59.022Z,97006.44
2023-09-03T17:18:26.714Z,97002.41
2023-09-03T17:20:54.301Z,97002.69
2023-09-03T17:23:21.933Z,97010.25
2023-09-03T17:25:52.064Z,97013.22
2023-09-03T17:28:19.823Z,97008.38
2023-09-03T17:30:47.802Z,97010.81
2023-09-03T17:33:15.408Z,97014.06
2023-09-03T17:35:43.071Z,97011.63
2023-09-03T17:38:10.637Z,97008.38
2023-09-03T17:40:40.587Z,97009.72
2023-09-03T17:43:09.550Z,96999.22
2023-09-03T17:45:40.347Z,97005.16
2023-09-03T17:48:08.009Z,97011.09
2023-09-03T17:50:35.743Z,97006.75
2023-09-03T17:53:03.345Z,97011.63
2023-09-03T17:55:31.163Z,97010.31
2023-09-03T17:57:58.770Z,97017.03
2023-09-03T18:00:27.671Z,97013.81
2023-09-03T18:02:55.353Z,97015.94
2023-09-03T18:05:24.658Z,97021.34
2023-09-03T18:07:52.412Z,97021.09
2023-09-03T18:10:20.208Z,97021.09
2023-09-03T18:12:48.186Z,97023.00
2023-09-03T18:15:19.244Z,97027.81
2023-09-03T18:17:48.859Z,97021.38
2023-09-03T18:20:18.563Z,97025.94
2023-09-03T18:22:46.254Z,97016.81
2023-09-03T18:25:13.877Z,97021.09
2023-09-03T18:27:41.475Z,97025.41
2023-09-03T18:30:10.248Z,97032.41
2023-09-03T18:32:37.904Z,97032.16
2023-09-03T18:35:07.918Z,97029.72
2023-09-03T18:37:35.519Z,97032.16
2023-09-03T18:40:03.157Z,97025.09
2023-09-03T18:42:30.713Z,97024.31
2023-09-03T18:44:58.371Z,97032.38
2023-09-03T18:47:26.016Z,97026.97
2023-09-03T18:49:53.968Z,97034.50
2023-09-03T18:52:22.934Z,97037.22
2023-09-03T18:54:52.523Z,97042.59
2023-09-03T18:57:20.129Z,97038.56
2023-09-03T18:59:48.209Z,97040.44
2023-09-03T19:02:17.715Z,97039.09
2023-09-03T19:04:46.023Z,97039.91
2023-09-03T19:07:13.628Z,97045.03
2023-09-03T19:09:43.211Z,97043.41
2023-09-03T19:12:12.996Z,97046.34
2023-09-03T19:14:42.605Z,97046.09
2023-09-03T19:17:10.502Z,97039.91
2023-09-03T19:19:38.233Z,97038.81
2023-09-03T19:22:05.919Z,97044.44
2023-09-03T19:24:33.488Z,97052.53
2023-09-03T19:27:02.453Z,97051.69
2023-09-03T19:29:30.049Z,97050.63
2023-09-03T19:31:57.638Z,97056.81
2023-09-03T19:34:26.215Z,97057.34
2023-09-03T19:36:54.422Z,97054.38
2023-09-03T19:39:22.034Z,97062.72
2023-09-03T19:41:51.425Z,97073.47
2023-09-03T19:44:22.391Z,97068.63
2023-09-03T19:46:50.785Z,97069.41
2023-09-03T19:49:18.739Z,97073.16
2023-09-03T19:51:46.346Z,97068.88
2023-09-03T19:54:14.268Z,97070.47
2023-09-03T19:56:41.983Z,97074.78
2023-09-03T19:59:09.701Z,97070.72
2023-09-03T20:01:38.718Z,97069.09
2023-09-03T20:04:06.378Z,97069.66
2023-09-03T20:06:33.976Z,97072.09
2023-09-03T20:09:03.668Z,97072.59
2023-09-03T20:11:32.876Z,97081.47
2023-09-03T20:14:00.800Z,97077.72
2023-09-03T20:16:29.245Z,97071.78
2023-09-03T20:18:58.247Z,97076.38
2023-09-03T20:21:26.042Z,97075.31
2023-09-03T20:23:53.662Z,97073.69
2023-09-03T20:26:21.289Z,97077.47
2023-09-03T20:28:49.049Z,97077.72
2023-09-03T20:31:17.266Z,97074.22
2023-09-03T20:33:45.165Z,97079.06
2023-09-03T20:36:14.348Z,97081.22
2023-09-03T20:38:42.313Z,97082.53
2023-09-03T20:41:10.457Z,97076.34
2023-09-03T20:43:38.047Z,97077.38
2023-09-03T20:46:05.706Z,97070.91
2023-09-03T20:48:33.770Z,97067.16
2023-09-03T20:51:02.800Z,97069.03
2023-09-03T20:53:31.960Z,97077.38
2023-09-03T20:55:59.988Z,97071.16
2023-09-03T20:58:27.807Z,97074.69
2023-09-03T21:00:55.599Z,97068.19
2023-09-03T21:03:23.352Z,97058.50
2023-09-03T21:05:51.462Z,97062.53
2023-09-03T21:08:19.479Z,97060.09
2023-09-03T21:10:57.671Z,97057.41
2023-09-03T21:13:25.311Z,97056.03
2023-09-03T21:15:54.432Z,97057.13
2023-09-03T21:18:22.133Z,97060.09
2023-09-03T21:20:52.375Z,97054.13
2023-09-03T21:23:20.048Z,97052.81
2023-09-03T21:25:47.662Z,97053.59
2023-09-03T21:28:16.609Z,97064.63
2023-09-03T21:30:44.211Z,97065.69
2023-09-03T21:33:11.853Z,97075.88
2023-09-03T21:35:39.815Z,97065.13
2023-09-03T21:38:07.887Z,97065.91
2023-09-03T21:40:36.934Z,97056.22
2023-09-03T21:43:05.205Z,97063.50
2023-09-03T21:45:34.148Z,97050.31
2023-09-03T21:48:01.823Z,97065.09
2023-09-03T21:50:29.509Z,97061.00
2023-09-03T21:52:57.154Z,97049.75
2023-09-03T21:55:24.777Z,97056.44
2023-09-03T21:57:52.553Z,97049.16
2023-09-03T22:00:20.424Z,97050.00
2023-09-03T22:02:51.386Z,97048.38
2023-09-03T22:05:19.135Z,97047.56
2023-09-03T22:07:46.769Z,97043.50
2023-09-03T22:10:14.773Z,97041.88
2023-09-03T22:12:43.282Z,97044.84
2023-09-03T22:15:11.642Z,97045.09
2023-09-03T22:17:39.327Z,97042.41
2023-09-03T22:20:09.807Z,97041.84
2023-09-03T22:22:37.400Z,97031.38
2023-09-03T22:25:05.840Z,97030.56
2023-09-03T22:27:33.429Z,97034.31
2023-09-03T22:30:01.862Z,97033.50
2023-09-03T22:32:29.453Z,97033.50
2023-09-03T22:34:57.073Z,97030.81
2023-09-03T22:37:26.016Z,97034.84
2023-09-03T22:39:53.605Z,97036.97
2023-09-03T22:42:21.241Z,97038.88
2023-09-03T22:44:49.503Z,97035.59
2023-09-03T22:47:17.093Z,97039.38
2023-09-03T22:49:45.138Z,97031.59
2023-09-03T22:52:13.418Z,97033.19
2023-09-03T22:54:42.481Z,97027.25
2023-09-03T22:57:10.051Z,97029.16
2023-09-03T22:59:37.995Z,97031.84
2023-09-03T23:02:06.015Z,97031.00
2023-09-03T23:04:33.600Z,97031.25
2023-09-03T23:07:01.298Z,97033.41
2023-09-03T23:09:28.887Z,97024.56
2023-09-03T23:11:58.148Z,97028.25
2023-09-03T23:14:26.580Z,97031.47
2023-09-03T23:16:54.437Z,97029.03
2023-09-03T23:19:22.108Z,97034.41
2023-09-03T23:21:49.782Z,97038.97
2023-09-03T23:24:17.564Z,97031.97
2023-09-03T23:26:45.755Z,97031.72
2023-09-03T23:29:14.774Z,97028.75
2023-09-03T23:31:42.626Z,97034.38
2023-09-03T23:34:10.228Z,97030.06
2023-09-03T23:36:37.992Z,97033.84
2023-09-03T23:39:05.637Z,97034.91
2023-09-03T23:41:33.226Z,97041.59
2023-09-03T23:44:00.822Z,97040.25
2023-09-03T23:46:29.783Z,97037.28
2023-09-03T23:48:59.024Z,97047.22
2023-09-03T23:51:27.106Z,97039.16
2023-09-03T23:53:54.792Z,97039.16
2023-09-03T23:56:22.397Z,97034.88
2023-09-03T23:58:49.986Z,97041.84
